sensor_id;sensor_type;location;lat;lon;timestamp;temperature;humidity
24217;DHT22;12356;49.386;8.688;2023-12-20T00:02:00;6.80;72.50
24217;DHT22;12356;49.386;8.688;2023-12-20T00:04:30;6.80;72.60
24217;DHT22;12356;49.386;8.688;2023-12-20T00:07:01;6.80;72.70
24217;DHT22;12356;49.386;8.688;2023-12-20T00:09:32;6.80;72.70
24217;DHT22;12356;49.386;8.688;2023-12-20T00:12:02;6.80;73.00
24217;DHT22;12356;49.386;8.688;2023-12-20T00:14:33;6.80;73.40
24217;DHT22;12356;49.386;8.688;2023-12-20T00:17:04;6.80;73.80
24217;DHT22;12356;49.386;8.688;2023-12-20T00:19:34;6.80;74.10
24217;DHT22;12356;49.386;8.688;2023-12-20T00:22:05;6.80;74.10
24217;DHT22;12356;49.386;8.688;2023-12-20T00:24:36;6.80;74.10
24217;DHT22;12356;49.386;8.688;2023-12-20T00:27:06;6.80;74.10
24217;DHT22;12356;49.386;8.688;2023-12-20T00:29:37;6.90;74.50
24217;DHT22;12356;49.386;8.688;2023-12-20T00:32:07;6.90;74.60
24217;DHT22;12356;49.386;8.688;2023-12-20T00:34:38;6.80;74.60
24217;DHT22;12356;49.386;8.688;2023-12-20T00:37:08;6.80;74.70
24217;DHT22;12356;49.386;8.688;2023-12-20T00:39:39;6.80;75.10
24217;DHT22;12356;49.386;8.688;2023-12-20T00:42:09;6.80;75.40
24217;DHT22;12356;49.386;8.688;2023-12-20T00:44:40;6.80;75.50
24217;DHT22;12356;49.386;8.688;2023-12-20T00:47:10;6.80;75.70
24217;DHT22;12356;49.386;8.688;2023-12-20T00:49:41;6.80;76.20
24217;DHT22;12356;49.386;8.688;2023-12-20T00:52:12;6.80;76.10
24217;DHT22;12356;49.386;8.688;2023-12-20T00:54:43;6.90;76.30
24217;DHT22;12356;49.386;8.688;2023-12-20T00:57:13;6.80;75.60
24217;DHT22;12356;49.386;8.688;2023-12-20T00:59:44;6.90;76.10
24217;DHT22;12356;49.386;8.688;2023-12-20T01:02:15;6.90;75.80
24217;DHT22;12356;49.386;8.688;2023-12-20T01:04:45;6.90;75.90
24217;DHT22;12356;49.386;8.688;2023-12-20T01:07:16;6.90;76.00
24217;DHT22;12356;49.386;8.688;2023-12-20T01:09:46;6.90;75.80
24217;DHT22;12356;49.386;8.688;2023-12-20T01:12:17;6.80;76.00
24217;DHT22;12356;49.386;8.688;2023-12-20T01:14:47;6.80;76.10
24217;DHT22;12356;49.386;8.688;2023-12-20T01:17:18;6.80;76.40
24217;DHT22;12356;49.386;8.688;2023-12-20T01:19:49;6.80;76.40
24217;DHT22;12356;49.386;8.688;2023-12-20T01:22:19;6.90;76.90
24217;DHT22;12356;49.386;8.688;2023-12-20T01:24:50;6.90;76.50
24217;DHT22;12356;49.386;8.688;2023-12-20T01:27:20;6.90;76.40
24217;DHT22;12356;49.386;8.688;2023-12-20T01:29:51;6.90;76.30
24217;DHT22;12356;49.386;8.688;2023-12-20T01:32:21;6.90;76.70
24217;DHT22;12356;49.386;8.688;2023-12-20T01:34:52;7.00;76.80
24217;DHT22;12356;49.386;8.688;2023-12-20T01:37:22;7.00;76.40
24217;DHT22;12356;49.386;8.688;2023-12-20T01:39:55;7.00;76.20
24217;DHT22;12356;49.386;8.688;2023-12-20T01:42:26;7.00;75.80
24217;DHT22;12356;49.386;8.688;2023-12-20T01:44:56;7.00;75.70
24217;DHT22;12356;49.386;8.688;2023-12-20T01:47:27;7.00;75.80
24217;DHT22;12356;49.386;8.688;2023-12-20T01:49:58;7.00;76.30
24217;DHT22;12356;49.386;8.688;2023-12-20T01:52:28;7.00;76.20
24217;DHT22;12356;49.386;8.688;2023-12-20T01:54:59;7.00;76.00
24217;DHT22;12356;49.386;8.688;2023-12-20T01:57:33;6.90;76.00
24217;DHT22;12356;49.386;8.688;2023-12-20T02:00:04;6.90;76.10
24217;DHT22;12356;49.386;8.688;2023-12-20T02:02:37;6.90;76.80
24217;DHT22;12356;49.386;8.688;2023-12-20T02:05:09;6.90;76.70
24217;DHT22;12356;49.386;8.688;2023-12-20T02:07:41;6.90;77.20
24217;DHT22;12356;49.386;8.688;2023-12-20T02:10:11;7.00;76.90
24217;DHT22;12356;49.386;8.688;2023-12-20T02:12:42;7.00;77.20
24217;DHT22;12356;49.386;8.688;2023-12-20T02:15:13;7.00;76.50
24217;DHT22;12356;49.386;8.688;2023-12-20T02:17:44;6.90;76.00
24217;DHT22;12356;49.386;8.688;2023-12-20T02:20:15;6.90;76.60
24217;DHT22;12356;49.386;8.688;2023-12-20T02:22:46;6.90;76.40
24217;DHT22;12356;49.386;8.688;2023-12-20T02:25:16;6.90;76.60
24217;DHT22;12356;49.386;8.688;2023-12-20T02:27:48;6.90;76.30
24217;DHT22;12356;49.386;8.688;2023-12-20T02:30:19;6.90;76.30
24217;DHT22;12356;49.386;8.688;2023-12-20T02:32:50;6.90;76.50
24217;DHT22;12356;49.386;8.688;2023-12-20T02:35:21;6.90;76.60
24217;DHT22;12356;49.386;8.688;2023-12-20T02:37:52;6.90;76.30
24217;DHT22;12356;49.386;8.688;2023-12-20T02:40:22;6.90;76.50
24217;DHT22;12356;49.386;8.688;2023-12-20T02:42:53;6.90;76.90
24217;DHT22;12356;49.386;8.688;2023-12-20T02:45:23;7.00;76.90
24217;DHT22;12356;49.386;8.688;2023-12-20T02:47:54;7.00;76.80
24217;DHT22;12356;49.386;8.688;2023-12-20T02:50:25;6.90;76.70
24217;DHT22;12356;49.386;8.688;2023-12-20T02:52:55;7.00;77.00
24217;DHT22;12356;49.386;8.688;2023-12-20T02:55:26;7.00;77.10
24217;DHT22;12356;49.386;8.688;2023-12-20T02:57:56;7.00;76.50
24217;DHT22;12356;49.386;8.688;2023-12-20T03:00:27;7.00;76.70
24217;DHT22;12356;49.386;8.688;2023-12-20T03:03:03;7.00;76.30
24217;DHT22;12356;49.386;8.688;2023-12-20T03:05:42;6.90;77.00
24217;DHT22;12356;49.386;8.688;2023-12-20T03:08:12;6.90;77.20
24217;DHT22;12356;49.386;8.688;2023-12-20T03:10:43;6.90;77.50
24217;DHT22;12356;49.386;8.688;2023-12-20T03:13:14;6.90;77.60
24217;DHT22;12356;49.386;8.688;2023-12-20T03:15:45;6.90;77.90
24217;DHT22;12356;49.386;8.688;2023-12-20T03:18:15;6.90;78.20
24217;DHT22;12356;49.386;8.688;2023-12-20T03:20:46;6.90;78.30
24217;DHT22;12356;49.386;8.688;2023-12-20T03:23:20;7.10;77.90
24217;DHT22;12356;49.386;8.688;2023-12-20T03:25:50;7.00;77.50
24217;DHT22;12356;49.386;8.688;2023-12-20T03:28:21;7.00;77.50
24217;DHT22;12356;49.386;8.688;2023-12-20T03:30:51;7.00;77.20
24217;DHT22;12356;49.386;8.688;2023-12-20T03:33:22;7.00;77.30
24217;DHT22;12356;49.386;8.688;2023-12-20T03:35:53;7.00;77.20
24217;DHT22;12356;49.386;8.688;2023-12-20T03:38:23;7.00;77.20
24217;DHT22;12356;49.386;8.688;2023-12-20T03:40:54;7.10;77.10
24217;DHT22;12356;49.386;8.688;2023-12-20T03:43:25;7.10;77.00
24217;DHT22;12356;49.386;8.688;2023-12-20T03:45:55;7.10;76.80
24217;DHT22;12356;49.386;8.688;2023-12-20T03:48:26;7.10;76.40
24217;DHT22;12356;49.386;8.688;2023-12-20T03:50:57;7.10;76.70
24217;DHT22;12356;49.386;8.688;2023-12-20T03:53:27;7.10;76.60
24217;DHT22;12356;49.386;8.688;2023-12-20T03:55:58;7.00;77.00
24217;DHT22;12356;49.386;8.688;2023-12-20T03:58:29;7.00;76.70
24217;DHT22;12356;49.386;8.688;2023-12-20T04:00:59;7.00;76.90
24217;DHT22;12356;49.386;8.688;2023-12-20T04:03:30;7.00;77.60
24217;DHT22;12356;49.386;8.688;2023-12-20T04:06:01;7.00;77.10
24217;DHT22;12356;49.386;8.688;2023-12-20T04:08:31;7.00;77.30
24217;DHT22;12356;49.386;8.688;2023-12-20T04:11:02;7.00;77.00
24217;DHT22;12356;49.386;8.688;2023-12-20T04:13:32;7.00;77.20
24217;DHT22;12356;49.386;8.688;2023-12-20T04:16:03;7.00;77.30
24217;DHT22;12356;49.386;8.688;2023-12-20T04:18:34;7.00;77.50
24217;DHT22;12356;49.386;8.688;2023-12-20T04:21:04;7.00;77.30
24217;DHT22;12356;49.386;8.688;2023-12-20T04:23:35;7.10;77.40
24217;DHT22;12356;49.386;8.688;2023-12-20T04:26:06;7.10;76.80
24217;DHT22;12356;49.386;8.688;2023-12-20T04:28:36;7.10;76.50
24217;DHT22;12356;49.386;8.688;2023-12-20T04:31:07;7.10;76.30
24217;DHT22;12356;49.386;8.688;2023-12-20T04:33:37;7.10;75.80
24217;DHT22;12356;49.386;8.688;2023-12-20T04:36:08;7.00;75.80
24217;DHT22;12356;49.386;8.688;2023-12-20T04:38:39;7.00;75.90
24217;DHT22;12356;49.386;8.688;2023-12-20T04:41:10;7.10;76.80
24217;DHT22;12356;49.386;8.688;2023-12-20T04:43:41;7.10;76.50
24217;DHT22;12356;49.386;8.688;2023-12-20T04:46:11;7.00;76.70
24217;DHT22;12356;49.386;8.688;2023-12-20T04:48:42;7.00;76.70
24217;DHT22;12356;49.386;8.688;2023-12-20T04:51:12;7.10;76.80
24217;DHT22;12356;49.386;8.688;2023-12-20T04:53:43;7.10;77.20
24217;DHT22;12356;49.386;8.688;2023-12-20T04:56:13;7.10;77.20
24217;DHT22;12356;49.386;8.688;2023-12-20T04:58:44;7.10;77.60
24217;DHT22;12356;49.386;8.688;2023-12-20T05:01:15;7.10;77.10
24217;DHT22;12356;49.386;8.688;2023-12-20T05:03:45;7.20;77.60
24217;DHT22;12356;49.386;8.688;2023-12-20T05:06:16;7.20;77.00
24217;DHT22;12356;49.386;8.688;2023-12-20T05:08:46;7.20;77.10
24217;DHT22;12356;49.386;8.688;2023-12-20T05:11:17;7.20;77.10
24217;DHT22;12356;49.386;8.688;2023-12-20T05:13:47;7.10;77.00
24217;DHT22;12356;49.386;8.688;2023-12-20T05:16:18;7.20;77.50
24217;DHT22;12356;49.386;8.688;2023-12-20T05:18:49;7.20;76.70
24217;DHT22;12356;49.386;8.688;2023-12-20T05:21:20;7.20;77.50
24217;DHT22;12356;49.386;8.688;2023-12-20T05:23:51;7.20;77.10
24217;DHT22;12356;49.386;8.688;2023-12-20T05:26:21;7.20;76.70
24217;DHT22;12356;49.386;8.688;2023-12-20T05:28:52;7.20;76.80
24217;DHT22;12356;49.386;8.688;2023-12-20T05:31:23;7.20;76.20
24217;DHT22;12356;49.386;8.688;2023-12-20T05:33:53;7.20;76.30
24217;DHT22;12356;49.386;8.688;2023-12-20T05:36:24;7.10;76.50
24217;DHT22;12356;49.386;8.688;2023-12-20T05:38:54;7.10;76.80
24217;DHT22;12356;49.386;8.688;2023-12-20T05:41:25;7.20;77.60
24217;DHT22;12356;49.386;8.688;2023-12-20T05:43:55;7.20;76.90
24217;DHT22;12356;49.386;8.688;2023-12-20T05:46:28;7.20;77.30
24217;DHT22;12356;49.386;8.688;2023-12-20T05:48:59;7.30;77.40
24217;DHT22;12356;49.386;8.688;2023-12-20T05:51:29;7.30;76.50
24217;DHT22;12356;49.386;8.688;2023-12-20T05:54:00;7.20;76.40
24217;DHT22;12356;49.386;8.688;2023-12-20T05:56:30;7.30;77.20
24217;DHT22;12356;49.386;8.688;2023-12-20T05:59:01;7.20;77.00
24217;DHT22;12356;49.386;8.688;2023-12-20T06:01:31;7.30;77.30
24217;DHT22;12356;49.386;8.688;2023-12-20T06:04:02;7.30;77.30
24217;DHT22;12356;49.386;8.688;2023-12-20T06:06:33;7.30;76.60
24217;DHT22;12356;49.386;8.688;2023-12-20T06:09:04;7.30;76.60
24217;DHT22;12356;49.386;8.688;2023-12-20T06:11:35;7.30;76.70
24217;DHT22;12356;49.386;8.688;2023-12-20T06:14:05;7.30;76.80
24217;DHT22;12356;49.386;8.688;2023-12-20T06:16:36;7.40;77.00
24217;DHT22;12356;49.386;8.688;2023-12-20T06:19:07;7.30;76.60
24217;DHT22;12356;49.386;8.688;2023-12-20T06:21:37;7.30;76.80
24217;DHT22;12356;49.386;8.688;2023-12-20T06:24:08;7.40;76.80
24217;DHT22;12356;49.386;8.688;2023-12-20T06:26:40;7.30;75.40
24217;DHT22;12356;49.386;8.688;2023-12-20T06:29:10;7.40;76.00
24217;DHT22;12356;49.386;8.688;2023-12-20T06:31:41;7.30;75.30
24217;DHT22;12356;49.386;8.688;2023-12-20T06:34:11;7.40;75.50
24217;DHT22;12356;49.386;8.688;2023-12-20T06:36:42;7.40;75.10
24217;DHT22;12356;49.386;8.688;2023-12-20T06:39:13;7.40;75.10
24217;DHT22;12356;49.386;8.688;2023-12-20T06:41:44;7.40;75.10
24217;DHT22;12356;49.386;8.688;2023-12-20T06:44:14;7.40;74.60
24217;DHT22;12356;49.386;8.688;2023-12-20T06:46:45;7.40;75.30
24217;DHT22;12356;49.386;8.688;2023-12-20T06:49:16;7.40;75.20
24217;DHT22;12356;49.386;8.688;2023-12-20T06:51:46;7.40;75.10
24217;DHT22;12356;49.386;8.688;2023-12-20T06:54:17;7.40;74.90
24217;DHT22;12356;49.386;8.688;2023-12-20T06:56:48;7.40;74.60
24217;DHT22;12356;49.386;8.688;2023-12-20T06:59:18;7.40;74.80
24217;DHT22;12356;49.386;8.688;2023-12-20T07:01:49;7.40;75.30
24217;DHT22;12356;49.386;8.688;2023-12-20T07:04:20;7.40;75.00
24217;DHT22;12356;49.386;8.688;2023-12-20T07:06:52;7.30;74.30
24217;DHT22;12356;49.386;8.688;2023-12-20T07:09:24;7.30;73.80
24217;DHT22;12356;49.386;8.688;2023-12-20T07:11:54;7.20;71.30
24217;DHT22;12356;49.386;8.688;2023-12-20T07:14:25;7.20;70.70
24217;DHT22;12356;49.386;8.688;2023-12-20T07:16:56;7.20;70.30
24217;DHT22;12356;49.386;8.688;2023-12-20T07:19:27;7.20;70.60
24217;DHT22;12356;49.386;8.688;2023-12-20T07:21:58;7.10;70.90
24217;DHT22;12356;49.386;8.688;2023-12-20T07:24:28;7.10;70.90
24217;DHT22;12356;49.386;8.688;2023-12-20T07:27:00;7.10;71.10
24217;DHT22;12356;49.386;8.688;2023-12-20T07:29:31;7.10;70.70
24217;DHT22;12356;49.386;8.688;2023-12-20T07:32:01;6.90;69.50
24217;DHT22;12356;49.386;8.688;2023-12-20T07:34:32;6.90;69.90
24217;DHT22;12356;49.386;8.688;2023-12-20T07:37:03;6.90;69.50
24217;DHT22;12356;49.386;8.688;2023-12-20T07:39:34;6.80;68.40
24217;DHT22;12356;49.386;8.688;2023-12-20T07:42:05;6.80;68.30
24217;DHT22;12356;49.386;8.688;2023-12-20T07:44:36;6.80;68.10
24217;DHT22;12356;49.386;8.688;2023-12-20T07:47:06;6.70;67.60
24217;DHT22;12356;49.386;8.688;2023-12-20T07:49:37;6.70;67.70
24217;DHT22;12356;49.386;8.688;2023-12-20T07:52:07;6.60;67.10
24217;DHT22;12356;49.386;8.688;2023-12-20T07:54:38;6.60;67.50
24217;DHT22;12356;49.386;8.688;2023-12-20T07:57:10;6.60;68.10
24217;DHT22;12356;49.386;8.688;2023-12-20T07:59:41;6.60;68.00
24217;DHT22;12356;49.386;8.688;2023-12-20T08:02:12;6.60;68.20
24217;DHT22;12356;49.386;8.688;2023-12-20T08:04:42;6.60;68.70
24217;DHT22;12356;49.386;8.688;2023-12-20T08:07:13;6.70;68.80
24217;DHT22;12356;49.386;8.688;2023-12-20T08:09:43;6.70;68.20
24217;DHT22;12356;49.386;8.688;2023-12-20T08:12:14;6.70;68.60
24217;DHT22;12356;49.386;8.688;2023-12-20T08:14:45;6.70;68.80
24217;DHT22;12356;49.386;8.688;2023-12-20T08:17:16;6.70;68.90
24217;DHT22;12356;49.386;8.688;2023-12-20T08:19:48;6.70;69.00
24217;DHT22;12356;49.386;8.688;2023-12-20T08:22:19;6.70;69.20
24217;DHT22;12356;49.386;8.688;2023-12-20T08:24:50;6.70;69.50
24217;DHT22;12356;49.386;8.688;2023-12-20T08:27:20;6.80;70.70
24217;DHT22;12356;49.386;8.688;2023-12-20T08:29:51;6.80;71.70
24217;DHT22;12356;49.386;8.688;2023-12-20T08:32:21;6.90;72.80
24217;DHT22;12356;49.386;8.688;2023-12-20T08:34:52;6.90;73.70
24217;DHT22;12356;49.386;8.688;2023-12-20T08:37:22;7.00;74.40
24217;DHT22;12356;49.386;8.688;2023-12-20T08:39:53;7.00;74.30
24217;DHT22;12356;49.386;8.688;2023-12-20T08:42:23;7.00;75.10
24217;DHT22;12356;49.386;8.688;2023-12-20T08:44:56;7.00;75.50
24217;DHT22;12356;49.386;8.688;2023-12-20T08:47:26;7.10;75.80
24217;DHT22;12356;49.386;8.688;2023-12-20T08:49:57;7.10;75.70
24217;DHT22;12356;49.386;8.688;2023-12-20T08:52:30;7.20;75.80
24217;DHT22;12356;49.386;8.688;2023-12-20T08:55:00;7.20;75.00
24217;DHT22;12356;49.386;8.688;2023-12-20T08:57:31;7.30;74.50
24217;DHT22;12356;49.386;8.688;2023-12-20T09:00:03;7.20;74.40
24217;DHT22;12356;49.386;8.688;2023-12-20T09:02:33;7.20;73.60
24217;DHT22;12356;49.386;8.688;2023-12-20T09:05:06;7.20;74.00
24217;DHT22;12356;49.386;8.688;2023-12-20T09:07:37;7.10;73.70
24217;DHT22;12356;49.386;8.688;2023-12-20T09:10:07;7.10;74.20
24217;DHT22;12356;49.386;8.688;2023-12-20T09:12:38;7.10;74.10
24217;DHT22;12356;49.386;8.688;2023-12-20T09:15:11;7.20;74.00
24217;DHT22;12356;49.386;8.688;2023-12-20T09:17:41;7.10;74.20
24217;DHT22;12356;49.386;8.688;2023-12-20T09:20:12;7.10;73.80
24217;DHT22;12356;49.386;8.688;2023-12-20T09:22:44;7.10;73.60
24217;DHT22;12356;49.386;8.688;2023-12-20T09:25:14;7.10;74.40
24217;DHT22;12356;49.386;8.688;2023-12-20T09:27:46;7.10;74.40
24217;DHT22;12356;49.386;8.688;2023-12-20T09:30:16;7.20;74.40
24217;DHT22;12356;49.386;8.688;2023-12-20T09:32:47;7.20;73.00
24217;DHT22;12356;49.386;8.688;2023-12-20T09:35:18;7.20;72.40
24217;DHT22;12356;49.386;8.688;2023-12-20T09:37:49;7.20;72.80
24217;DHT22;12356;49.386;8.688;2023-12-20T09:40:20;7.20;72.70
24217;DHT22;12356;49.386;8.688;2023-12-20T09:42:59;7.20;70.80
24217;DHT22;12356;49.386;8.688;2023-12-20T09:45:32;7.20;70.90
24217;DHT22;12356;49.386;8.688;2023-12-20T09:48:04;7.20;71.60
24217;DHT22;12356;49.386;8.688;2023-12-20T09:50:35;7.20;71.70
24217;DHT22;12356;49.386;8.688;2023-12-20T09:53:08;7.20;70.60
24217;DHT22;12356;49.386;8.688;2023-12-20T09:55:41;7.20;69.20
24217;DHT22;12356;49.386;8.688;2023-12-20T09:58:12;7.20;67.90
24217;DHT22;12356;49.386;8.688;2023-12-20T10:00:43;7.20;69.20
24217;DHT22;12356;49.386;8.688;2023-12-20T10:03:14;7.30;69.60
24217;DHT22;12356;49.386;8.688;2023-12-20T10:05:45;7.30;71.10
24217;DHT22;12356;49.386;8.688;2023-12-20T10:08:17;7.30;71.50
24217;DHT22;12356;49.386;8.688;2023-12-20T10:10:48;7.40;69.30
24217;DHT22;12356;49.386;8.688;2023-12-20T10:13:18;7.40;63.10
24217;DHT22;12356;49.386;8.688;2023-12-20T10:15:49;7.40;63.90
24217;DHT22;12356;49.386;8.688;2023-12-20T10:18:20;7.50;65.80
24217;DHT22;12356;49.386;8.688;2023-12-20T10:20:51;7.50;65.70
24217;DHT22;12356;49.386;8.688;2023-12-20T10:23:22;7.50;64.30
24217;DHT22;12356;49.386;8.688;2023-12-20T10:25:59;7.50;62.80
24217;DHT22;12356;49.386;8.688;2023-12-20T10:28:34;7.50;62.60
24217;DHT22;12356;49.386;8.688;2023-12-20T10:31:05;7.50;61.50
24217;DHT22;12356;49.386;8.688;2023-12-20T10:33:35;7.50;60.50
24217;DHT22;12356;49.386;8.688;2023-12-20T10:36:06;7.50;61.90
24217;DHT22;12356;49.386;8.688;2023-12-20T10:38:38;7.50;62.10
24217;DHT22;12356;49.386;8.688;2023-12-20T10:41:10;7.50;61.40
24217;DHT22;12356;49.386;8.688;2023-12-20T10:43:41;7.70;61.70
24217;DHT22;12356;49.386;8.688;2023-12-20T10:46:12;7.70;60.90
24217;DHT22;12356;49.386;8.688;2023-12-20T10:48:44;7.70;61.70
24217;DHT22;12356;49.386;8.688;2023-12-20T10:51:17;7.70;58.10
24217;DHT22;12356;49.386;8.688;2023-12-20T10:53:49;7.70;56.60
24217;DHT22;12356;49.386;8.688;2023-12-20T10:56:20;7.70;56.70
24217;DHT22;12356;49.386;8.688;2023-12-20T10:58:54;7.80;52.30
24217;DHT22;12356;49.386;8.688;2023-12-20T11:01:27;7.70;50.30
24217;DHT22;12356;49.386;8.688;2023-12-20T11:03:58;7.80;51.30
24217;DHT22;12356;49.386;8.688;2023-12-20T11:06:38;7.70;48.80
24217;DHT22;12356;49.386;8.688;2023-12-20T11:09:54;7.70;47.90
24217;DHT22;12356;49.386;8.688;2023-12-20T11:12:10;7.70;50.10
24217;DHT22;12356;49.386;8.688;2023-12-20T11:14:47;7.80;48.60
24217;DHT22;12356;49.386;8.688;2023-12-20T11:17:19;7.70;51.90
24217;DHT22;12356;49.386;8.688;2023-12-20T11:22:31;7.70;53.20
24217;DHT22;12356;49.386;8.688;2023-12-20T11:25:06;7.70;52.40
24217;DHT22;12356;49.386;8.688;2023-12-20T11:27:43;7.70;52.00
24217;DHT22;12356;49.386;8.688;2023-12-20T11:30:14;7.70;51.30
24217;DHT22;12356;49.386;8.688;2023-12-20T11:32:46;7.70;50.90
24217;DHT22;12356;49.386;8.688;2023-12-20T11:35:18;7.70;50.50
24217;DHT22;12356;49.386;8.688;2023-12-20T11:37:51;7.80;49.90
24217;DHT22;12356;49.386;8.688;2023-12-20T11:40:23;7.80;48.40
24217;DHT22;12356;49.386;8.688;2023-12-20T11:42:55;7.80;48.50
24217;DHT22;12356;49.386;8.688;2023-12-20T11:45:26;7.80;50.10
24217;DHT22;12356;49.386;8.688;2023-12-20T11:47:58;7.80;52.90
24217;DHT22;12356;49.386;8.688;2023-12-20T11:50:29;7.80;50.40
24217;DHT22;12356;49.386;8.688;2023-12-20T11:53:03;7.80;49.00
24217;DHT22;12356;49.386;8.688;2023-12-20T11:55:34;7.80;49.60
24217;DHT22;12356;49.386;8.688;2023-12-20T11:58:04;7.80;51.90
24217;DHT22;12356;49.386;8.688;2023-12-20T12:00:35;7.80;52.20
24217;DHT22;12356;49.386;8.688;2023-12-20T12:03:06;7.90;51.60
24217;DHT22;12356;49.386;8.688;2023-12-20T12:05:36;7.90;50.20
24217;DHT22;12356;49.386;8.688;2023-12-20T12:08:07;7.90;50.20
24217;DHT22;12356;49.386;8.688;2023-12-20T12:10:38;7.90;50.70
24217;DHT22;12356;49.386;8.688;2023-12-20T12:13:08;8.00;49.00
24217;DHT22;12356;49.386;8.688;2023-12-20T12:15:40;8.00;49.20
24217;DHT22;12356;49.386;8.688;2023-12-20T12:18:16;8.00;49.60
24217;DHT22;12356;49.386;8.688;2023-12-20T12:20:46;8.00;45.70
24217;DHT22;12356;49.386;8.688;2023-12-20T12:23:23;7.90;44.30
24217;DHT22;12356;49.386;8.688;2023-12-20T12:25:54;7.90;45.30
24217;DHT22;12356;49.386;8.688;2023-12-20T12:28:26;7.90;45.80
24217;DHT22;12356;49.386;8.688;2023-12-20T12:30:59;7.90;45.90
24217;DHT22;12356;49.386;8.688;2023-12-20T12:33:29;7.80;43.30
24217;DHT22;12356;49.386;8.688;2023-12-20T12:36:03;7.80;44.20
24217;DHT22;12356;49.386;8.688;2023-12-20T12:38:35;7.80;44.20
24217;DHT22;12356;49.386;8.688;2023-12-20T12:41:06;7.80;45.40
24217;DHT22;12356;49.386;8.688;2023-12-20T12:43:37;7.70;46.30
24217;DHT22;12356;49.386;8.688;2023-12-20T12:46:08;7.70;44.60
24217;DHT22;12356;49.386;8.688;2023-12-20T12:48:38;7.70;44.40
24217;DHT22;12356;49.386;8.688;2023-12-20T12:51:09;7.70;43.40
24217;DHT22;12356;49.386;8.688;2023-12-20T12:53:44;7.70;44.10
24217;DHT22;12356;49.386;8.688;2023-12-20T12:56:15;7.70;45.20
24217;DHT22;12356;49.386;8.688;2023-12-20T12:58:46;7.70;45.10
24217;DHT22;12356;49.386;8.688;2023-12-20T13:01:16;7.80;45.10
24217;DHT22;12356;49.386;8.688;2023-12-20T13:03:47;7.80;44.20
24217;DHT22;12356;49.386;8.688;2023-12-20T13:06:17;7.70;43.70
24217;DHT22;12356;49.386;8.688;2023-12-20T13:08:48;7.70;44.50
24217;DHT22;12356;49.386;8.688;2023-12-20T13:11:19;7.70;45.50
24217;DHT22;12356;49.386;8.688;2023-12-20T13:13:49;7.70;44.90
24217;DHT22;12356;49.386;8.688;2023-12-20T13:16:20;7.70;44.20
24217;DHT22;12356;49.386;8.688;2023-12-20T13:18:50;7.70;44.20
24217;DHT22;12356;49.386;8.688;2023-12-20T13:21:21;7.70;45.10
24217;DHT22;12356;49.386;8.688;2023-12-20T13:23:51;7.70;44.30
24217;DHT22;12356;49.386;8.688;2023-12-20T13:26:24;7.70;44.80
24217;DHT22;12356;49.386;8.688;2023-12-20T13:28:55;7.70;45.30
24217;DHT22;12356;49.386;8.688;2023-12-20T13:31:25;7.70;46.60
24217;DHT22;12356;49.386;8.688;2023-12-20T13:33:56;7.70;47.40
24217;DHT22;12356;49.386;8.688;2023-12-20T13:36:26;7.70;47.40
24217;DHT22;12356;49.386;8.688;2023-12-20T13:38:57;7.70;47.90
24217;DHT22;12356;49.386;8.688;2023-12-20T13:41:28;7.60;47.00
24217;DHT22;12356;49.386;8.688;2023-12-20T13:43:58;7.70;46.00
24217;DHT22;12356;49.386;8.688;2023-12-20T13:46:29;7.70;46.70
24217;DHT22;12356;49.386;8.688;2023-12-20T13:49:00;7.70;46.70
24217;DHT22;12356;49.386;8.688;2023-12-20T13:51:30;7.80;46.90
24217;DHT22;12356;49.386;8.688;2023-12-20T13:54:01;7.80;47.00
24217;DHT22;12356;49.386;8.688;2023-12-20T13:56:31;7.70;47.10
24217;DHT22;12356;49.386;8.688;2023-12-20T13:59:03;7.70;46.90
24217;DHT22;12356;49.386;8.688;2023-12-20T14:01:34;7.70;47.70
24217;DHT22;12356;49.386;8.688;2023-12-20T14:04:05;7.70;47.00
24217;DHT22;12356;49.386;8.688;2023-12-20T14:06:37;7.70;44.20
24217;DHT22;12356;49.386;8.688;2023-12-20T14:09:07;7.60;44.50
24217;DHT22;12356;49.386;8.688;2023-12-20T14:11:38;7.60;45.50
24217;DHT22;12356;49.386;8.688;2023-12-20T14:14:11;7.60;44.60
24217;DHT22;12356;49.386;8.688;2023-12-20T14:16:42;7.60;44.00
24217;DHT22;12356;49.386;8.688;2023-12-20T14:19:15;7.70;44.80
24217;DHT22;12356;49.386;8.688;2023-12-20T14:21:46;7.70;44.10
24217;DHT22;12356;49.386;8.688;2023-12-20T14:24:17;7.70;43.10
24217;DHT22;12356;49.386;8.688;2023-12-20T14:26:47;7.70;43.40
24217;DHT22;12356;49.386;8.688;2023-12-20T14:29:18;7.70;43.70
24217;DHT22;12356;49.386;8.688;2023-12-20T14:31:48;7.70;43.80
24217;DHT22;12356;49.386;8.688;2023-12-20T14:34:20;7.70;44.10
24217;DHT22;12356;49.386;8.688;2023-12-20T14:36:50;7.70;44.10
24217;DHT22;12356;49.386;8.688;2023-12-20T14:39:22;7.60;44.30
24217;DHT22;12356;49.386;8.688;2023-12-20T14:41:53;7.60;44.10
24217;DHT22;12356;49.386;8.688;2023-12-20T14:44:24;7.60;44.10
24217;DHT22;12356;49.386;8.688;2023-12-20T14:46:55;7.60;44.40
24217;DHT22;12356;49.386;8.688;2023-12-20T14:49:25;7.60;44.60
24217;DHT22;12356;49.386;8.688;2023-12-20T14:51:57;7.70;44.50
24217;DHT22;12356;49.386;8.688;2023-12-20T14:54:28;7.70;44.80
24217;DHT22;12356;49.386;8.688;2023-12-20T14:56:59;7.70;44.50
24217;DHT22;12356;49.386;8.688;2023-12-20T14:59:30;7.70;44.80
24217;DHT22;12356;49.386;8.688;2023-12-20T15:02:01;7.70;44.50
24217;DHT22;12356;49.386;8.688;2023-12-20T15:04:35;7.60;44.60
24217;DHT22;12356;49.386;8.688;2023-12-20T15:07:05;7.60;45.40
24217;DHT22;12356;49.386;8.688;2023-12-20T15:09:36;7.60;44.40
24217;DHT22;12356;49.386;8.688;2023-12-20T15:12:07;7.70;43.30
24217;DHT22;12356;49.386;8.688;2023-12-20T15:14:39;7.70;43.40
24217;DHT22;12356;49.386;8.688;2023-12-20T15:17:10;7.70;44.00
24217;DHT22;12356;49.386;8.688;2023-12-20T15:19:41;7.70;43.00
24217;DHT22;12356;49.386;8.688;2023-12-20T15:22:13;7.70;44.00
24217;DHT22;12356;49.386;8.688;2023-12-20T15:24:43;7.70;43.40
24217;DHT22;12356;49.386;8.688;2023-12-20T15:27:16;7.70;43.00
24217;DHT22;12356;49.386;8.688;2023-12-20T15:29:47;7.60;42.70
24217;DHT22;12356;49.386;8.688;2023-12-20T15:32:20;7.60;42.80
24217;DHT22;12356;49.386;8.688;2023-12-20T15:34:50;7.60;43.20
24217;DHT22;12356;49.386;8.688;2023-12-20T15:37:22;7.60;43.60
24217;DHT22;12356;49.386;8.688;2023-12-20T15:39:53;7.50;43.00
24217;DHT22;12356;49.386;8.688;2023-12-20T15:42:24;7.60;43.40
24217;DHT22;12356;49.386;8.688;2023-12-20T15:44:54;7.60;43.50
24217;DHT22;12356;49.386;8.688;2023-12-20T15:47:25;7.60;42.50
24217;DHT22;12356;49.386;8.688;2023-12-20T15:49:55;7.60;42.60
24217;DHT22;12356;49.386;8.688;2023-12-20T15:52:26;7.60;43.00
24217;DHT22;12356;49.386;8.688;2023-12-20T15:54:57;7.60;43.10
24217;DHT22;12356;49.386;8.688;2023-12-20T15:57:27;7.60;42.80
24217;DHT22;12356;49.386;8.688;2023-12-20T15:59:58;7.60;42.80
24217;DHT22;12356;49.386;8.688;2023-12-20T16:02:28;7.60;43.00
24217;DHT22;12356;49.386;8.688;2023-12-20T16:04:59;7.60;42.90
24217;DHT22;12356;49.386;8.688;2023-12-20T16:07:29;7.70;42.90
24217;DHT22;12356;49.386;8.688;2023-12-20T16:10:00;7.60;42.70
24217;DHT22;12356;49.386;8.688;2023-12-20T16:12:31;7.60;43.80